createdAt,value
2023-02-24T00:00:01.734Z,945.71
2023-02-24T00:00:12.745Z,945.70
2023-02-24T00:00:23.756Z,945.70
2023-02-24T00:00:35.754Z,945.71
2023-02-24T00:00:47.393Z,945.70
2023-02-24T00:00:58.760Z,945.70
2023-02-24T00:01:10.734Z,945.70
2023-02-24T00:01:21.993Z,945.69
2023-02-24T00:01:32.709Z,945.68
2023-02-24T00:01:43.715Z,945.68
2023-02-24T00:01:54.726Z,945.68
2023-02-24T00:02:06.213Z,945.68
2023-02-24T00:02:17.835Z,945.68
2023-02-24T00:02:28.763Z,945.67
2023-02-24T00:02:39.814Z,945.68
2023-02-24T00:02:50.757Z,945.67
2023-02-24T00:03:01.760Z,945.67
2023-02-24T00:03:13.767Z,945.67
2023-02-24T00:03:25.817Z,945.68
2023-02-24T00:03:36.840Z,945.68
2023-02-24T00:03:48.833Z,945.68
2023-02-24T00:04:00.744Z,945.68
2023-02-24T00:04:12.759Z,945.67
2023-02-24T00:04:24.738Z,945.67
2023-02-24T00:04:35.742Z,945.66
2023-02-24T00:04:46.739Z,945.66
2023-02-24T00:04:57.754Z,945.66
2023-02-24T00:05:09.766Z,945.66
2023-02-24T00:05:21.737Z,945.66
2023-02-24T00:05:32.792Z,945.66
2023-02-24T00:05:44.796Z,945.65
2023-02-24T00:05:56.793Z,945.65
2023-02-24T00:06:07.723Z,945.64
2023-02-24T00:06:18.714Z,945.63
2023-02-24T00:06:29.714Z,945.62
2023-02-24T00:06:40.747Z,945.62
2023-02-24T00:06:51.763Z,945.61
2023-02-24T00:07:03.722Z,945.61
2023-02-24T00:07:14.757Z,945.60
2023-02-24T00:07:26.740Z,945.60
2023-02-24T00:07:37.746Z,945.59
2023-02-24T00:07:49.738Z,945.59
2023-02-24T00:08:01.728Z,945.58
2023-02-24T00:08:12.744Z,945.58
2023-02-24T00:08:23.748Z,945.58
2023-02-24T00:08:34.751Z,945.58
2023-02-24T00:08:45.752Z,945.58
2023-02-24T00:08:56.740Z,945.58
2023-02-24T00:09:07.721Z,945.58
2023-02-24T00:09:18.729Z,945.58
2023-02-24T00:09:29.733Z,945.58
2023-02-24T00:09:40.745Z,945.57
2023-02-24T00:09:52.726Z,945.57
2023-02-24T00:10:03.727Z,945.57
2023-02-24T00:10:14.721Z,945.57
2023-02-24T00:10:25.761Z,945.57
2023-02-24T00:10:37.795Z,945.57
2023-02-24T00:10:48.707Z,945.57
2023-02-24T00:10:59.702Z,945.57
2023-02-24T00:11:10.719Z,945.57
2023-02-24T00:11:22.176Z,945.57
2023-02-24T00:11:32.723Z,945.57
2023-02-24T00:11:43.737Z,945.57
2023-02-24T00:11:54.737Z,945.56
2023-02-24T00:12:05.743Z,945.57
2023-02-24T00:12:16.743Z,945.56
2023-02-24T00:12:27.747Z,945.57
2023-02-24T00:12:38.746Z,945.57
2023-02-24T00:12:49.766Z,945.58
2023-02-24T00:13:01.729Z,945.58
2023-02-24T00:13:12.735Z,945.59
2023-02-24T00:13:23.740Z,945.59
2023-02-24T00:13:35.745Z,945.60
2023-02-24T00:13:46.750Z,945.60
2023-02-24T00:13:58.743Z,945.60
2023-02-24T00:14:09.751Z,945.60
2023-02-24T00:14:21.730Z,945.60
2023-02-24T00:14:32.748Z,945.60
2023-02-24T00:14:43.764Z,945.60
2023-02-24T00:14:55.754Z,945.60
2023-02-24T00:15:06.756Z,945.60
2023-02-24T00:15:17.759Z,945.61
2023-02-24T00:15:29.740Z,945.61
2023-02-24T00:15:40.743Z,945.61
2023-02-24T00:15:51.761Z,945.60
2023-02-24T00:16:03.811Z,945.60
2023-02-24T00:16:14.775Z,945.59
2023-02-24T00:16:25.964Z,945.59
2023-02-24T00:16:36.891Z,945.59
2023-02-24T00:16:48.878Z,945.59
2023-02-24T00:16:59.782Z,945.60
2023-02-24T00:17:10.882Z,945.60
2023-02-24T00:17:21.763Z,945.60
2023-02-24T00:17:33.719Z,945.61
2023-02-24T00:17:44.728Z,945.61
2023-02-24T00:17:55.728Z,945.61
2023-02-24T00:18:06.754Z,945.60
2023-02-24T00:18:17.765Z,945.59
2023-02-24T00:18:29.727Z,945.58
2023-02-24T00:18:40.729Z,945.56
2023-02-24T00:18:51.751Z,945.55
2023-02-24T00:19:03.729Z,945.54
2023-02-24T00:19:14.739Z,945.53
2023-02-24T00:19:26.735Z,945.52
2023-02-24T00:19:38.752Z,945.52
2023-02-24T00:19:49.757Z,945.52
2023-02-24T00:20:01.729Z,945.50
2023-02-24T00:20:12.742Z,945.49
2023-02-24T00:20:23.739Z,945.49
2023-02-24T00:20:34.745Z,945.48
2023-02-24T00:20:46.726Z,945.48
2023-02-24T00:20:57.745Z,945.47
2023-02-24T00:21:08.751Z,945.47
2023-02-24T00:21:20.062Z,945.47
2023-02-24T00:21:31.766Z,945.46
2023-02-24T00:21:43.768Z,945.46
2023-02-24T00:21:55.731Z,945.46
2023-02-24T00:22:06.742Z,945.45
2023-02-24T00:22:18.716Z,945.44
2023-02-24T00:22:29.719Z,945.44
2023-02-24T00:22:40.720Z,945.45
2023-02-24T00:22:51.726Z,945.45
2023-02-24T00:23:02.734Z,945.45
2023-02-24T00:23:13.757Z,945.45
2023-02-24T00:23:24.749Z,945.45
2023-02-24T00:23:35.769Z,945.46
2023-02-24T00:23:47.744Z,945.46
2023-02-24T00:23:58.734Z,945.46
2023-02-24T00:24:09.735Z,945.46
2023-02-24T00:24:20.739Z,945.46
2023-02-24T00:24:31.740Z,945.46
2023-02-24T00:24:42.762Z,945.46
2023-02-24T00:24:54.726Z,945.45
2023-02-24T00:25:05.739Z,945.45
2023-02-24T00:25:16.745Z,945.45
2023-02-24T00:25:27.744Z,945.45
2023-02-24T00:25:39.739Z,945.45
2023-02-24T00:25:51.762Z,945.46
2023-02-24T00:26:03.735Z,945.47
2023-02-24T00:26:14.729Z,945.47
2023-02-24T00:26:25.734Z,945.48
2023-02-24T00:26:36.766Z,945.49
2023-02-24T00:26:48.729Z,945.49
2023-02-24T00:26:59.731Z,945.49
2023-02-24T00:27:10.733Z,945.49
2023-02-24T00:27:21.727Z,945.48
2023-02-24T00:27:32.730Z,945.48
2023-02-24T00:27:43.748Z,945.48
2023-02-24T00:27:54.750Z,945.47
2023-02-24T00:28:05.713Z,945.47
2023-02-24T00:28:16.724Z,945.46
2023-02-24T00:28:28.747Z,945.45
2023-02-24T00:28:39.747Z,945.45
2023-02-24T00:28:50.748Z,945.45
2023-02-24T00:29:01.760Z,945.44
2023-02-24T00:29:13.729Z,945.43
2023-02-24T00:29:24.737Z,945.43
2023-02-24T00:29:35.738Z,945.42
2023-02-24T00:29:46.736Z,945.41
2023-02-24T00:29:57.740Z,945.40
2023-02-24T00:30:08.728Z,945.40
2023-02-24T00:30:19.725Z,945.40
2023-02-24T00:30:30.747Z,945.39
2023-02-24T00:30:41.790Z,945.39
2023-02-24T00:30:52.859Z,945.39
2023-02-24T00:31:03.892Z,945.39
2023-02-24T00:31:15.888Z,945.39
2023-02-24T00:31:26.865Z,945.39
2023-02-24T00:31:39.080Z,945.39
2023-02-24T00:31:51.091Z,945.39
2023-02-24T00:32:03.033Z,945.39
2023-02-24T00:32:15.089Z,945.39
2023-02-24T00:32:26.074Z,945.39
2023-02-24T00:32:36.908Z,945.39
2023-02-24T00:32:47.879Z,945.38
2023-02-24T00:32:59.773Z,945.38
2023-02-24T00:33:11.730Z,945.37
2023-02-24T00:33:22.750Z,945.37
2023-02-24T00:33:33.754Z,945.37
2023-02-24T00:33:44.765Z,945.36
2023-02-24T00:33:56.736Z,945.36
2023-02-24T00:34:07.748Z,945.37
2023-02-24T00:34:19.732Z,945.36
2023-02-24T00:34:30.717Z,945.36
2023-02-24T00:34:41.729Z,945.36
2023-02-24T00:34:52.726Z,945.36
2023-02-24T00:35:03.734Z,945.36
2023-02-24T00:35:14.727Z,945.36
2023-02-24T00:35:25.747Z,945.35
2023-02-24T00:35:36.748Z,945.35
2023-02-24T00:35:48.755Z,945.35
2023-02-24T00:35:59.744Z,945.35
2023-02-24T00:36:10.791Z,945.35
2023-02-24T00:36:22.763Z,945.35
2023-02-24T00:36:33.836Z,945.34
2023-02-24T00:36:44.759Z,945.34
2023-02-24T00:36:55.760Z,945.34
2023-02-24T00:37:07.742Z,945.34
2023-02-24T00:37:18.799Z,945.33
2023-02-24T00:37:30.793Z,945.32
2023-02-24T00:37:42.766Z,945.32
2023-02-24T00:37:53.756Z,945.32
2023-02-24T00:38:04.765Z,945.31
2023-02-24T00:38:15.748Z,945.31
2023-02-24T00:38:26.762Z,945.30
2023-02-24T00:38:38.742Z,945.29
2023-02-24T00:38:50.761Z,945.29
2023-02-24T00:39:01.761Z,945.28
2023-02-24T00:39:12.803Z,945.28
2023-02-24T00:39:24.764Z,945.28
2023-02-24T00:39:35.784Z,945.27
2023-02-24T00:39:47.770Z,945.27
2023-02-24T00:39:59.737Z,945.27
2023-02-24T00:40:10.746Z,945.26
2023-02-24T00:40:21.760Z,945.26
2023-02-24T00:40:33.741Z,945.26
2023-02-24T00:40:44.780Z,945.25
2023-02-24T00:40:56.735Z,945.25
2023-02-24T00:41:07.738Z,945.25
2023-02-24T00:41:19.057Z,945.24
2023-02-24T00:41:29.750Z,945.24
2023-02-24T00:41:41.742Z,945.24
2023-02-24T00:41:52.737Z,945.24
2023-02-24T00:42:03.734Z,945.24
2023-02-24T00:42:14.731Z,945.24
2023-02-24T00:42:25.763Z,945.24
2023-02-24T00:42:36.761Z,945.24
2023-02-24T00:42:47.748Z,945.25
2023-02-24T00:42:58.749Z,945.25
2023-02-24T00:43:09.765Z,945.26
2023-02-24T00:43:20.759Z,945.26
2023-02-24T00:43:31.767Z,945.26
2023-02-24T00:43:43.732Z,945.26
2023-02-24T00:43:54.711Z,945.26
2023-02-24T00:44:05.713Z,945.26
2023-02-24T00:44:16.733Z,945.26
2023-02-24T00:44:27.741Z,945.26
2023-02-24T00:44:39.734Z,945.26
2023-02-24T00:44:50.733Z,945.25
2023-02-24T00:45:01.767Z,945.25
2023-02-24T00:45:12.759Z,945.24
2023-02-24T00:45:23.762Z,945.24
2023-02-24T00:45:34.762Z,945.24
2023-02-24T00:45:45.757Z,945.24
2023-02-24T00:45:57.752Z,945.24
2023-02-24T00:46:09.765Z,945.24
2023-02-24T00:46:21.843Z,945.24
2023-02-24T00:46:33.801Z,945.24
2023-02-24T00:46:44.806Z,945.24
2023-02-24T00:46:56.768Z,945.24
2023-02-24T00:47:07.770Z,945.24
2023-02-24T00:47:18.764Z,945.24
2023-02-24T00:47:29.756Z,945.24
2023-02-24T00:47:41.744Z,945.24
2023-02-24T00:47:52.744Z,945.24
2023-02-24T00:48:03.772Z,945.24
2023-02-24T00:48:15.742Z,945.24
2023-02-24T00:48:27.747Z,945.22
2023-02-24T00:48:38.746Z,945.22
2023-02-24T00:48:49.756Z,945.21
2023-02-24T00:49:00.760Z,945.21
2023-02-24T00:49:11.763Z,945.20
2023-02-24T00:49:22.762Z,945.20
2023-02-24T00:49:33.754Z,945.20
2023-02-24T00:49:44.771Z,945.19
2023-02-24T00:49:56.754Z,945.18
2023-02-24T00:50:07.711Z,945.17
2023-02-24T00:50:18.725Z,945.17
2023-02-24T00:50:29.723Z,945.16
2023-02-24T00:50:40.723Z,945.16
2023-02-24T00:50:51.726Z,945.15
2023-02-24T00:51:02.750Z,945.15
2023-02-24T00:51:14.745Z,945.14
2023-02-24T00:51:25.754Z,945.14
2023-02-24T00:51:36.770Z,945.14
2023-02-24T00:51:48.816Z,945.14
2023-02-24T00:51:59.738Z,945.14
2023-02-24T00:52:10.733Z,945.14
2023-02-24T00:52:21.754Z,945.14
2023-02-24T00:52:32.759Z,945.14
2023-02-24T00:52:44.736Z,945.14
2023-02-24T00:52:55.738Z,945.13
2023-02-24T00:53:06.751Z,945.13
2023-02-24T00:53:18.731Z,945.13
2023-02-24T00:53:29.750Z,945.13
2023-02-24T00:53:40.771Z,945.11
2023-02-24T00:53:51.770Z,945.10
2023-02-24T00:54:03.742Z,945.10
2023-02-24T00:54:14.788Z,945.09
2023-02-24T00:54:26.764Z,945.08
2023-02-24T00:54:38.743Z,945.08
2023-02-24T00:54:49.815Z,945.07
2023-02-24T00:55:00.768Z,945.06
2023-02-24T00:55:11.761Z,945.05
2023-02-24T00:55:22.757Z,945.05
2023-02-24T00:55:34.740Z,945.04
2023-02-24T00:55:45.754Z,945.03
2023-02-24T00:55:56.756Z,945.02
2023-02-24T00:56:07.758Z,945.01
2023-02-24T00:56:18.760Z,945.00
2023-02-24T00:56:30.752Z,944.99
2023-02-24T00:56:41.756Z,944.98
2023-02-24T00:56:52.763Z,944.97
2023-02-24T00:57:04.733Z,944.96
2023-02-24T00:57:15.732Z,944.96
2023-02-24T00:57:26.739Z,944.96
2023-02-24T00:57:38.751Z,944.96
2023-02-24T00:57:49.748Z,944.96
2023-02-24T00:58:01.748Z,944.97
2023-02-24T00:58:12.751Z,944.98
2023-02-24T00:58:23.748Z,944.99
2023-02-24T00:58:34.747Z,944.99
2023-02-24T00:58:46.744Z,945.00
2023-02-24T00:58:57.765Z,945.01
2023-02-24T00:59:08.759Z,945.01
2023-02-24T00:59:19.763Z,945.01
2023-02-24T00:59:30.760Z,945.00
2023-02-24T00:59:41.779Z,945.00
2023-02-24T00:59:53.755Z,945.01
2023-02-24T01:00:04.756Z,945.02
2023-02-24T01:00:15.751Z,945.03
2023-02-24T01:00:26.764Z,945.03
2023-02-24T01:00:37.769Z,945.03
2023-02-24T01:00:49.765Z,945.03
2023-02-24T01:01:01.757Z,945.04
2023-02-24T01:01:12.777Z,945.04
2023-02-24T01:01:24.786Z,945.03
2023-02-24T01:01:36.779Z,945.03
2023-02-24T01:01:48.808Z,945.02
2023-02-24T01:02:00.911Z,945.03
2023-02-24T01:02:11.733Z,945.04
2023-02-24T01:02:22.753Z,945.04
2023-02-24T01:02:33.756Z,945.05
2023-02-24T01:02:44.758Z,945.05
2023-02-24T01:02:56.748Z,945.06
2023-02-24T01:03:07.765Z,945.07
2023-02-24T01:03:19.716Z,945.07
2023-02-24T01:03:30.779Z,945.06
2023-02-24T01:03:42.759Z,945.04
2023-02-24T01:03:54.891Z,945.03
2023-02-24T01:04:05.906Z,945.03
2023-02-24T01:04:17.870Z,945.03
2023-02-24T01:04:29.752Z,945.03
2023-02-24T01:04:40.762Z,945.03
2023-02-24T01:04:52.759Z,945.03
2023-02-24T01:05:03.774Z,945.04
2023-02-24T01:05:15.746Z,945.04
2023-02-24T01:05:26.746Z,945.04
2023-02-24T01:05:37.785Z,945.03
2023-02-24T01:05:49.756Z,945.03
2023-02-24T01:06:00.766Z,945.02
2023-02-24T01:06:11.767Z,945.02
2023-02-24T01:06:22.769Z,945.01
2023-02-24T01:06:34.745Z,945.01
2023-02-24T01:06:45.759Z,945.02
2023-02-24T01:06:56.757Z,945.02
2023-02-24T01:07:08.740Z,945.02
2023-02-24T01:07:19.770Z,945.02
2023-02-24T01:07:31.739Z,945.02
2023-02-24T01:07:42.728Z,945.02
2023-02-24T01:07:53.750Z,945.03
2023-02-24T01:08:04.770Z,945.04
2023-02-24T01:08:16.738Z,945.04
2023-02-24T01:08:27.727Z,945.04
2023-02-24T01:08:38.739Z,945.04
2023-02-24T01:08:49.758Z,945.02
2023-02-24T01:09:01.751Z,945.00
2023-02-24T01:09:12.773Z,944.99
2023-02-24T01:09:24.744Z,944.98
2023-02-24T01:09:35.749Z,944.98
2023-02-24T01:09:46.752Z,944.99
2023-02-24T01:09:57.770Z,944.99
2023-02-24T01:10:08.786Z,944.99
2023-02-24T01:10:20.767Z,945.00
2023-02-24T01:10:31.762Z,945.01
2023-02-24T01:10:43.745Z,945.01
2023-02-24T01:10:54.752Z,945.01
2023-02-24T01:11:05.757Z,945.02
2023-02-24T01:11:16.759Z,945.02
2023-02-24T01:11:28.735Z,945.01
2023-02-24T01:11:39.749Z,945.02
2023-02-24T01:11:51.791Z,945.03
2023-02-24T01:12:02.757Z,945.03
2023-02-24T01:12:14.807Z,945.01
2023-02-24T01:12:25.763Z,945.01
2023-02-24T01:12:37.744Z,945.00
2023-02-24T01:12:50.005Z,944.99
2023-02-24T01:13:00.766Z,944.99
2023-02-24T01:13:11.763Z,944.99
2023-02-24T01:13:22.755Z,944.98
2023-02-24T01:13:34.766Z,944.97
2023-02-24T01:13:45.761Z,944.95
2023-02-24T01:13:56.767Z,944.95
2023-02-24T01:14:08.765Z,944.95
2023-02-24T01:14:20.749Z,944.95
2023-02-24T01:14:32.765Z,944.94
2023-02-24T01:14:43.777Z,944.94
2023-02-24T01:14:55.759Z,944.96
2023-02-24T01:15:06.763Z,944.96
2023-02-24T01:15:18.768Z,944.96
2023-02-24T01:15:30.749Z,944.96
2023-02-24T01:15:41.795Z,944.97
2023-02-24T01:15:52.763Z,944.96
2023-02-24T01:16:04.761Z,944.95
2023-02-24T01:16:15.791Z,944.95
2023-02-24T01:16:27.847Z,944.96
2023-02-24T01:16:38.751Z,944.97
2023-02-24T01:16:49.744Z,944.97
2023-02-24T01:17:00.754Z,944.96
2023-02-24T01:17:11.754Z,944.97
2023-02-24T01:17:22.810Z,944.96
2023-02-24T01:17:33.730Z,944.97
2023-02-24T01:17:44.756Z,944.98
2023-02-24T01:17:55.771Z,944.98
2023-02-24T01:18:07.755Z,944.97
2023-02-24T01:18:18.756Z,944.98
2023-02-24T01:18:30.726Z,944.98
2023-02-24T01:18:41.735Z,944.98
2023-02-24T01:18:52.761Z,944.97
2023-02-24T01:19:03.763Z,944.96
2023-02-24T01:19:15.909Z,944.95
2023-02-24T01:19:26.710Z,944.94
2023-02-24T01:19:37.797Z,944.93
2023-02-24T01:19:49.896Z,944.92
2023-02-24T01:20:01.799Z,944.92
2023-02-24T01:20:13.801Z,944.92
2023-02-24T01:20:25.766Z,944.91
2023-02-24T01:20:37.731Z,944.91
2023-02-24T01:20:48.713Z,944.91
2023-02-24T01:20:59.713Z,944.90
2023-02-24T01:21:10.731Z,944.90
2023-02-24T01:21:22.100Z,944.91
2023-02-24T01:21:33.759Z,944.90
2023-02-24T01:21:44.754Z,944.90
2023-02-24T01:21:55.763Z,944.90
2023-02-24T01:22:06.752Z,944.90
2023-02-24T01:22:17.757Z,944.90
2023-02-24T01:22:28.754Z,944.91
2023-02-24T01:22:39.756Z,944.91
2023-02-24T01:22:50.757Z,944.91
2023-02-24T01:23:02.743Z,944.91
2023-02-24T01:23:13.769Z,944.90
2023-02-24T01:23:24.772Z,944.90
2023-02-24T01:23:36.736Z,944.89
2023-02-24T01:23:48.727Z,944.88
2023-02-24T01:24:00.738Z,944.88
2023-02-24T01:24:11.734Z,944.87
2023-02-24T01:24:22.758Z,944.87
2023-02-24T01:24:33.759Z,944.86
2023-02-24T01:24:45.763Z,944.85
2023-02-24T01:24:56.762Z,944.85
2023-02-24T01:25:08.736Z,944.84
2023-02-24T01:25:19.753Z,944.83
2023-02-24T01:25:30.768Z,944.82
2023-02-24T01:25:43.179Z,944.82
2023-02-24T01:25:53.798Z,944.81
2023-02-24T01:26:05.794Z,944.81
2023-02-24T01:26:17.767Z,944.80
2023-02-24T01:26:29.786Z,944.79
2023-02-24T01:26:41.744Z,944.79
2023-02-24T01:26:52.758Z,944.79
2023-02-24T01:27:03.758Z,944.79
2023-02-24T01:27:14.757Z,944.79
2023-02-24T01:27:25.758Z,944.81
2023-02-24T01:27:37.735Z,944.81
2023-02-24T01:27:48.747Z,944.82
2023-02-24T01:27:59.761Z,944.81
2023-02-24T01:28:10.773Z,944.81
2023-02-24T01:28:21.772Z,944.80
2023-02-24T01:28:32.767Z,944.79
2023-02-24T01:28:44.748Z,944.78
2023-02-24T01:28:55.756Z,944.78
2023-02-24T01:29:07.754Z,944.78
2023-02-24T01:29:19.740Z,944.77
2023-02-24T01:29:30.774Z,944.77
2023-02-24T01:29:42.732Z,944.77
2023-02-24T01:29:53.749Z,944.77
2023-02-24T01:30:04.750Z,944.77
2023-02-24T01:30:16.328Z,944.77
2023-02-24T01:30:26.762Z,944.77
2023-02-24T01:30:38.726Z,944.77
2023-02-24T01:30:49.725Z,944.77
2023-02-24T01:31:00.787Z,944.77
2023-02-24T01:31:11.820Z,944.77
2023-02-24T01:31:24.390Z,944.77
2023-02-24T01:31:34.794Z,944.76
2023-02-24T01:31:48.801Z,944.76
2023-02-24T01:31:59.114Z,944.75
2023-02-24T01:32:09.931Z,944.74
2023-02-24T01:32:21.058Z,944.73
2023-02-24T01:32:32.082Z,944.71
2023-02-24T01:32:43.937Z,944.69
2023-02-24T01:32:54.966Z,944.67
2023-02-24T01:33:06.961Z,944.66
2023-02-24T01:33:18.757Z,944.64
2023-02-24T01:33:30.733Z,944.64
2023-02-24T01:33:41.724Z,944.64
2023-02-24T01:33:52.738Z,944.64
2023-02-24T01:34:03.748Z,944.64
2023-02-24T01:34:14.753Z,944.65
2023-02-24T01:34:25.757Z,944.66
2023-02-24T01:34:37.751Z,944.67
2023-02-24T01:34:48.754Z,944.68
2023-02-24T01:34:59.761Z,944.69
2023-02-24T01:35:10.776Z,944.69
2023-02-24T01:35:21.761Z,944.69
2023-02-24T01:35:33.741Z,944.68
2023-02-24T01:35:44.737Z,944.67
2023-02-24T01:35:55.743Z,944.66
2023-02-24T01:36:06.756Z,944.65
2023-02-24T01:36:17.757Z,944.64
2023-02-24T01:36:28.748Z,944.64
2023-02-24T01:36:39.746Z,944.64
2023-02-24T01:36:51.753Z,944.64
2023-02-24T01:37:02.746Z,944.64
2023-02-24T01:37:13.761Z,944.64
2023-02-24T01:37:25.749Z,944.63
2023-02-24T01:37:36.768Z,944.63
2023-02-24T01:37:48.763Z,944.63
2023-02-24T01:37:59.768Z,944.62
2023-02-24T01:38:11.749Z,944.61
2023-02-24T01:38:22.744Z,944.60
2023-02-24T01:38:34.749Z,944.59
2023-02-24T01:38:45.742Z,944.59
2023-02-24T01:38:56.767Z,944.59
2023-02-24T01:39:08.740Z,944.59
2023-02-24T01:39:19.740Z,944.58
2023-02-24T01:39:30.745Z,944.57
2023-02-24T01:39:41.759Z,944.57
2023-02-24T01:39:53.760Z,944.56
2023-02-24T01:40:04.766Z,944.56
2023-02-24T01:40:16.746Z,944.56
2023-02-24T01:40:27.755Z,944.56
2023-02-24T01:40:38.755Z,944.56
2023-02-24T01:40:49.752Z,944.55
2023-02-24T01:41:00.752Z,944.55
2023-02-24T01:41:11.766Z,944.54
2023-02-24T01:41:22.793Z,944.52
2023-02-24T01:41:33.739Z,944.51
2023-02-24T01:41:44.748Z,944.50
2023-02-24T01:41:55.766Z,944.48
2023-02-24T01:42:07.731Z,944.47
2023-02-24T01:42:18.745Z,944.46
2023-02-24T01:42:29.762Z,944.45
2023-02-24T01:42:41.763Z,944.45
2023-02-24T01:42:53.754Z,944.45
2023-02-24T01:43:04.758Z,944.45
2023-02-24T01:43:16.737Z,944.47
2023-02-24T01:43:27.756Z,944.48
2023-02-24T01:43:38.756Z,944.50
2023-02-24T01:43:50.746Z,944.51
2023-02-24T01:44:02.740Z,944.51
2023-02-24T01:44:13.747Z,944.51
2023-02-24T01:44:24.756Z,944.51
2023-02-24T01:44:35.760Z,944.50
2023-02-24T01:44:46.815Z,944.49
2023-02-24T01:44:57.780Z,944.48
2023-02-24T01:45:09.751Z,944.47
2023-02-24T01:45:20.751Z,944.46
2023-02-24T01:45:31.760Z,944.46
2023-02-24T01:45:42.762Z,944.46
2023-02-24T01:45:54.739Z,944.47
2023-02-24T01:46:06.756Z,944.46
2023-02-24T01:46:18.870Z,944.45
2023-02-24T01:46:30.808Z,944.44
2023-02-24T01:46:42.857Z,944.42
2023-02-24T01:46:53.798Z,944.41
2023-02-24T01:47:05.759Z,944.39
2023-02-24T01:47:16.765Z,944.38
2023-02-24T01:47:27.772Z,944.36
2023-02-24T01:47:38.804Z,944.35
2023-02-24T01:47:50.760Z,944.34
2023-02-24T01:48:02.748Z,944.34
2023-02-24T01:48:14.745Z,944.34
2023-02-24T01:48:25.766Z,944.35
2023-02-24T01:48:37.736Z,944.35
2023-02-24T01:48:48.736Z,944.35
2023-02-24T01:48:59.765Z,944.35
2023-02-24T01:49:11.733Z,944.36
2023-02-24T01:49:23.735Z,944.37
2023-02-24T01:49:34.756Z,944.38
2023-02-24T01:49:45.746Z,944.39
2023-02-24T01:49:56.755Z,944.40
2023-02-24T01:50:07.760Z,944.40
2023-02-24T01:50:18.758Z,944.39
2023-02-24T01:50:30.738Z,944.38
2023-02-24T01:50:41.754Z,944.37
2023-02-24T01:50:52.754Z,944.36
2023-02-24T01:51:04.760Z,944.37
2023-02-24T01:51:15.766Z,944.37
2023-02-24T01:51:27.783Z,944.38
2023-02-24T01:51:39.763Z,944.38
2023-02-24T01:51:50.757Z,944.38
2023-02-24T01:52:01.755Z,944.38
2023-02-24T01:52:12.776Z,944.37
2023-02-24T01:52:23.766Z,944.36
2023-02-24T01:52:34.762Z,944.36
2023-02-24T01:52:46.777Z,944.36
2023-02-24T01:52:58.819Z,944.36
2023-02-24T01:53:09.739Z,944.36
2023-02-24T01:53:20.753Z,944.37
2023-02-24T01:53:31.746Z,944.36
2023-02-24T01:53:55.295Z,944.36
2023-02-24T01:53:56.788Z,944.36
2023-02-24T01:54:08.776Z,944.36
2023-02-24T01:54:20.732Z,944.36
2023-02-24T01:54:31.748Z,944.36
2023-02-24T01:54:42.763Z,944.36
2023-02-24T01:54:53.767Z,944.36
2023-02-24T01:55:04.761Z,944.37
2023-02-24T01:55:16.771Z,944.37
2023-02-24T01:55:27.762Z,944.37
2023-02-24T01:55:38.760Z,944.37
2023-02-24T01:55:50.815Z,944.37
2023-02-24T01:56:01.747Z,944.37
2023-02-24T01:56:12.760Z,944.36
2023-02-24T01:56:24.750Z,944.36
2023-02-24T01:56:35.769Z,944.35
2023-02-24T01:56:47.730Z,944.34
2023-02-24T01:56:58.744Z,944.34
2023-02-24T01:57:09.740Z,944.34
2023-02-24T01:57:20.724Z,944.34
2023-02-24T01:57:31.741Z,944.34
2023-02-24T01:57:42.763Z,944.34
2023-02-24T01:57:53.749Z,944.34
2023-02-24T01:58:04.792Z,944.35
2023-02-24T01:58:15.730Z,944.35
2023-02-24T01:58:26.722Z,944.34
2023-02-24T01:58:37.721Z,944.34
2023-02-24T01:58:48.744Z,944.34
2023-02-24T01:58:59.732Z,944.34
2023-02-24T01:59:10.764Z,944.35
2023-02-24T01:59:21.753Z,944.35
2023-02-24T01:59:32.749Z,944.36
2023-02-24T01:59:44.755Z,944.36
2023-02-24T01:59:55.777Z,944.36
2023-02-24T02:00:06.773Z,944.37
2023-02-24T02:00:17.773Z,944.37
2023-02-24T02:00:29.756Z,944.37
2023-02-24T02:00:40.769Z,944.38
2023-02-24T02:00:51.763Z,944.38
2023-02-24T02:01:02.750Z,944.38
2023-02-24T02:01:13.743Z,944.38
2023-02-24T02:01:24.812Z,944.38
2023-02-24T02:01:35.846Z,944.39
2023-02-24T02:01:46.853Z,944.38
2023-02-24T02:01:58.924Z,944.39
2023-02-24T02:02:10.981Z,944.39
2023-02-24T02:02:21.902Z,944.39
2023-02-24T02:02:32.794Z,944.39
2023-02-24T02:02:44.995Z,944.39
2023-02-24T02:02:55.817Z,944.39
2023-02-24T02:03:07.785Z,944.38
2023-02-24T02:03:19.758Z,944.38
2023-02-24T02:03:30.773Z,944.39
2023-02-24T02:03:42.747Z,944.39
2023-02-24T02:03:53.755Z,944.39
2023-02-24T02:04:04.746Z,944.38
2023-02-24T02:04:15.763Z,944.38
2023-02-24T02:04:26.775Z,944.38
2023-02-24T02:04:38.774Z,944.38
2023-02-24T02:04:50.777Z,944.38
2023-02-24T02:05:02.758Z,944.38
2023-02-24T02:05:14.826Z,944.38
2023-02-24T02:05:25.761Z,944.38
2023-02-24T02:05:36.763Z,944.38
2023-02-24T02:05:47.787Z,944.37
2023-02-24T02:05:59.765Z,944.37
2023-02-24T02:06:10.773Z,944.36
2023-02-24T02:06:22.737Z,944.36
2023-02-24T02:06:33.737Z,944.35
2023-02-24T02:06:44.739Z,944.35
2023-02-24T02:06:55.745Z,944.35
2023-02-24T02:07:06.741Z,944.35
2023-02-24T02:07:17.747Z,944.34
2023-02-24T02:07:28.738Z,944.33
2023-02-24T02:07:39.764Z,944.33
2023-02-24T02:07:51.740Z,944.33
2023-02-24T02:08:03.760Z,944.33
2023-02-24T02:08:15.761Z,944.34
2023-02-24T02:08:27.744Z,944.33
2023-02-24T02:08:38.754Z,944.33
2023-02-24T02:08:49.764Z,944.33
2023-02-24T02:09:01.751Z,944.33
2023-02-24T02:09:12.767Z,944.32
2023-02-24T02:09:23.764Z,944.32
2023-02-24T02:09:34.762Z,944.31
2023-02-24T02:09:45.776Z,944.31
2023-02-24T02:09:57.747Z,944.30
2023-02-24T02:10:08.755Z,944.29
2023-02-24T02:10:19.749Z,944.29
2023-02-24T02:10:30.762Z,944.28
2023-02-24T02:10:41.758Z,944.27
2023-02-24T02:10:53.804Z,944.26
2023-02-24T02:11:05.767Z,944.25
2023-02-24T02:11:17.760Z,944.25
2023-02-24T02:11:28.763Z,944.24
2023-02-24T02:11:40.743Z,944.23
2023-02-24T02:11:51.761Z,944.22
2023-02-24T02:12:02.765Z,944.21
2023-02-24T02:12:13.780Z,944.20
2023-02-24T02:12:25.751Z,944.19
2023-02-24T02:12:36.769Z,944.18
2023-02-24T02:12:48.745Z,944.17
2023-02-24T02:12:59.752Z,944.16
2023-02-24T02:13:10.760Z,944.16
2023-02-24T02:13:21.834Z,944.15
2023-02-24T02:13:36.070Z,944.15
2023-02-24T02:13:44.814Z,944.14
2023-02-24T02:13:56.858Z,944.14
2023-02-24T02:14:08.760Z,944.13
2023-02-24T02:14:20.752Z,944.13
2023-02-24T02:14:31.767Z,944.13
2023-02-24T02:14:42.765Z,944.13
2023-02-24T02:14:54.748Z,944.13
2023-02-24T02:15:06.745Z,944.12
2023-02-24T02:15:17.763Z,944.12
2023-02-24T02:15:28.765Z,944.11
2023-02-24T02:15:39.757Z,944.11
2023-02-24T02:15:51.745Z,944.11
2023-02-24T02:16:02.833Z,944.11
2023-02-24T02:16:13.912Z,944.12
2023-02-24T02:16:24.823Z,944.11
2023-02-24T02:16:35.870Z,944.11
2023-02-24T02:16:47.806Z,944.11
2023-02-24T02:16:59.772Z,944.10
2023-02-24T02:17:11.743Z,944.11
2023-02-24T02:17:22.739Z,944.11
2023-02-24T02:17:33.744Z,944.10
2023-02-24T02:17:44.752Z,944.10
2023-02-24T02:17:56.769Z,944.10
2023-02-24T02:18:08.737Z,944.10
2023-02-24T02:18:19.745Z,944.10
2023-02-24T02:18:30.763Z,944.09
2023-02-24T02:18:41.765Z,944.09
2023-02-24T02:18:52.755Z,944.10
2023-02-24T02:19:03.741Z,944.10
2023-02-24T02:19:14.737Z,944.10
2023-02-24T02:19:25.736Z,944.11
2023-02-24T02:19:36.735Z,944.10
2023-02-24T02:19:47.750Z,944.10
2023-02-24T02:19:58.767Z,944.10
2023-02-24T02:20:09.774Z,944.11
2023-02-24T02:20:21.745Z,944.11
2023-02-24T02:20:32.782Z,944.11
2023-02-24T02:20:44.760Z,944.10
2023-02-24T02:20:55.818Z,944.10
2023-02-24T02:21:06.757Z,944.09
2023-02-24T02:21:17.901Z,944.09